Allgemein Konfiguration Graphen Daten
Stationsname
Abfragebeginn
Abfrageende
Abfrage
Daten
Station 5
ErfassungszeitpunktTemperatursensor THETA PROBE (2m) [°C]Temperatursensor PT100 (-0,25m) [°C]Temperatursensor PT100 (-0,55m) [°C]Quantumsensor DK-PHAR2 (2m) [µmol/m²s]Feuchtesensor THETA PROBE (2m) [%]Bodenfeuchte-Messsonde ML1 (-0,25m) [%]Bodenfeuchte-Messsonde ML1 (-0,55m) [%]Regen- und Schneemesser [cm²]
28.06.2010 16:00:0026,6113,8611,82169,8936,467,898,77-9999
28.06.2010 17:00:0026,1213,9111,8156,2337,347,888,75-9999
28.06.2010 18:00:0025,4813,9711,8141,0438,17,898,74-9999
28.06.2010 19:00:0024,6414,0311,8124,2244,177,898,74-9999
28.06.2010 20:00:0022,6314,0911,8113,253,667,898,74-9999
28.06.2010 21:00:0020,6514,1511,824,4362,677,898,73-9999
28.06.2010 22:00:0018,5714,2111,822,771,127,898,73-9999
28.06.2010 23:00:0016,714,2511,832,6677,927,898,73-9999
29.06.2010 00:00:0015,4114,311,832,6182,567,898,73-9999
29.06.2010 01:00:0014,4614,3311,842,6286,287,98,73-9999
29.06.2010 02:00:0013,7414,3511,852,6189,597,98,73-9999
29.06.2010 03:00:0013,0814,3611,862,6192,097,98,73-9999
29.06.2010 04:00:0012,3814,3711,873,5394,497,98,73-9999
29.06.2010 05:00:0012,1514,3611,8810,5296,037,98,73-9999
29.06.2010 06:00:0012,814,3511,8923,7395,237,98,73-9999
29.06.2010 07:00:0014,8614,3311,9155,390,797,98,73-9999
29.06.2010 08:00:0018,1214,3111,9249,0983,777,98,74-9999
29.06.2010 09:00:0021,7314,2811,9371,6768,077,98,74-9999
29.06.2010 10:00:0024,6714,2611,9484,7252,017,98,74-9999
29.06.2010 11:00:0026,9314,2411,94311,7341,547,98,73-9999
29.06.2010 12:00:0028,214,2411,95199,636,837,898,72-9999
29.06.2010 13:00:0028,5614,2511,95174,0935,377,898,71-9999
29.06.2010 14:00:0028,2914,2811,95148,0635,577,898,7-9999
29.06.2010 15:00:0028,0314,3311,95157,8736,997,888,7-9999
29.06.2010 16:00:0028,8314,3811,96216,8434,367,888,69-9999
29.06.2010 17:00:0027,7814,4411,9678,4937,577,888,67-9999
29.06.2010 18:00:0026,4314,5111,9648,8844,587,888,67-9999
29.06.2010 19:00:0024,7314,5811,9728,0551,677,898,66-9999
29.06.2010 20:00:0023,1214,6511,9814,0358,557,898,65-9999
29.06.2010 21:00:0020,9514,7111,993,8164,347,898,66-9999
29.06.2010 22:00:0018,8614,76122,6672,047,98,65-9999
29.06.2010 23:00:0017,3914,8112,012,6675,827,98,66-9999
30.06.2010 00:00:0016,8514,8512,022,6576,517,898,65-9999
30.06.2010 01:00:0016,2614,8912,032,6479,717,98,66-9999
30.06.2010 02:00:0016,0314,9112,052,6280,887,98,66-9999
30.06.2010 03:00:0016,0914,9312,062,6482,467,918,65-9999
30.06.2010 04:00:0015,8814,9312,083,2784,927,98,66-9999
30.06.2010 05:00:0015,2414,9312,18,6488,077,918,66-9999
30.06.2010 06:00:0015,814,9212,1125,2388,787,918,66-9999
30.06.2010 07:00:0017,5114,9112,1354,5585,747,918,66-9999
12345678910111213141516171819202122232425262728293031323334353637383940...>>